createdAt,value
2018-04-30T00:01:21.119Z,39.90
2018-04-30T00:03:48.577Z,36.60
2018-04-30T00:06:16.130Z,34.33
2018-04-30T00:08:43.595Z,38.10
2018-04-30T00:11:11.045Z,38.70
2018-04-30T00:13:38.470Z,31.63
2018-04-30T00:16:05.913Z,34.93
2018-04-30T00:18:33.365Z,38.10
2018-04-30T00:21:01.772Z,44.87
2018-04-30T00:23:29.261Z,39.77
2018-04-30T00:25:56.678Z,38.87
2018-04-30T00:28:24.175Z,42.00
2018-04-30T00:30:51.621Z,46.67
2018-04-30T00:33:19.062Z,41.77
2018-04-30T00:35:46.636Z,42.77
2018-04-30T00:38:14.081Z,49.93
2018-04-30T00:40:41.525Z,45.13
2018-04-30T00:43:08.965Z,44.30
2018-04-30T00:45:36.470Z,52.47
2018-04-30T00:48:03.915Z,48.67
2018-04-30T00:50:31.413Z,42.37
2018-04-30T00:52:58.941Z,48.80
2018-04-30T00:55:27.286Z,46.80
2018-04-30T00:57:54.737Z,48.97
2018-04-30T01:00:22.230Z,45.43
2018-04-30T01:02:51.643Z,45.40
2018-04-30T01:05:19.093Z,46.17
2018-04-30T01:07:46.509Z,49.97
2018-04-30T01:10:14.922Z,41.93
2018-04-30T01:12:43.279Z,43.33
2018-04-30T01:15:10.730Z,40.50
2018-04-30T01:17:38.218Z,40.20
2018-04-30T01:20:05.667Z,38.43
2018-04-30T01:22:33.091Z,47.33
2018-04-30T01:25:00.540Z,40.63
2018-04-30T01:27:27.979Z,50.20
2018-04-30T01:29:55.430Z,40.30
2018-04-30T01:32:22.849Z,43.93
2018-04-30T01:34:50.416Z,36.83
2018-04-30T01:37:17.870Z,38.20
2018-04-30T01:39:45.326Z,38.37
2018-04-30T01:42:12.781Z,36.13
2018-04-30T01:44:40.201Z,38.43
2018-04-30T01:47:07.646Z,43.13
2018-04-30T01:49:35.154Z,33.13
2018-04-30T01:52:02.608Z,40.33
2018-04-30T01:54:30.026Z,37.70
2018-04-30T01:56:57.490Z,46.13
2018-04-30T01:59:24.981Z,47.20
2018-04-30T02:01:52.426Z,45.93
2018-04-30T02:04:22.818Z,53.60
2018-04-30T02:06:50.266Z,42.37
2018-04-30T02:09:17.691Z,41.57
2018-04-30T02:11:45.146Z,45.00
2018-04-30T02:14:12.555Z,41.30
2018-04-30T02:16:40.011Z,50.63
2018-04-30T02:19:07.501Z,41.37
2018-04-30T02:21:34.955Z,41.60
2018-04-30T02:24:03.446Z,47.47
2018-04-30T02:26:30.989Z,50.40
2018-04-30T02:28:58.413Z,46.10
2018-04-30T02:31:27.851Z,40.13
2018-04-30T02:33:55.317Z,42.97
2018-04-30T02:36:23.681Z,43.33
2018-04-30T02:38:51.146Z,42.83
2018-04-30T02:41:19.511Z,42.20
2018-04-30T02:43:46.986Z,46.20
2018-04-30T02:46:14.409Z,45.13
2018-04-30T02:48:41.866Z,43.13
2018-04-30T02:51:09.301Z,49.23
2018-04-30T02:53:36.742Z,42.73
2018-04-30T02:56:04.170Z,43.27
2018-04-30T02:58:31.620Z,37.97
2018-04-30T03:00:59.042Z,44.43
2018-04-30T03:03:26.533Z,44.07
2018-04-30T03:05:55.905Z,46.67
2018-04-30T03:08:23.353Z,43.77
2018-04-30T03:10:50.853Z,54.40
2018-04-30T03:13:18.411Z,46.30
2018-04-30T03:15:45.839Z,48.77
2018-04-30T03:18:13.275Z,51.87
2018-04-30T03:20:41.703Z,44.83
2018-04-30T03:23:09.130Z,51.67
2018-04-30T03:25:37.540Z,55.10
2018-04-30T03:28:04.987Z,53.10
2018-04-30T03:30:32.435Z,56.93
2018-04-30T03:32:59.854Z,48.13
2018-04-30T03:35:27.294Z,53.10
2018-04-30T03:37:55.704Z,60.67
2018-04-30T03:40:23.203Z,52.00
2018-04-30T03:42:50.666Z,61.60
2018-04-30T03:45:18.189Z,49.70
2018-04-30T03:47:45.533Z,53.43
2018-04-30T03:50:12.982Z,57.60
2018-04-30T03:52:40.485Z,52.93
2018-04-30T03:55:07.938Z,52.13
2018-04-30T03:57:35.400Z,58.10
2018-04-30T04:00:02.828Z,54.93
2018-04-30T04:02:42.073Z,55.23
2018-04-30T04:05:21.217Z,57.17
2018-04-30T04:07:48.669Z,58.47
2018-04-30T04:10:16.096Z,62.70
2018-04-30T04:12:43.614Z,52.17
2018-04-30T04:15:10.981Z,59.67
2018-04-30T04:17:39.526Z,55.57
2018-04-30T04:20:06.947Z,58.27
2018-04-30T04:22:34.439Z,66.33
2018-04-30T04:25:01.863Z,57.97
2018-04-30T04:27:31.409Z,55.37
2018-04-30T04:29:58.853Z,57.37
2018-04-30T04:32:26.307Z,50.60
2018-04-30T04:34:53.730Z,50.87
2018-04-30T04:37:21.182Z,50.40
2018-04-30T04:39:48.673Z,45.90
2018-04-30T04:42:16.140Z,55.53
2018-04-30T04:44:43.558Z,48.63
2018-04-30T04:47:11.916Z,47.50
2018-04-30T04:49:39.329Z,42.40
2018-04-30T04:52:06.777Z,51.40
2018-04-30T04:54:35.157Z,55.87
2018-04-30T04:57:02.618Z,51.27
2018-04-30T04:59:30.062Z,40.53
2018-04-30T05:01:57.473Z,38.83
2018-04-30T05:04:24.929Z,38.33
2018-04-30T05:06:52.342Z,39.90
2018-04-30T05:09:19.781Z,33.30
2018-04-30T05:11:47.205Z,33.67
2018-04-30T05:14:14.653Z,33.83
2018-04-30T05:16:42.169Z,26.07
2018-04-30T05:19:09.618Z,27.83
2018-04-30T05:21:37.037Z,27.60
2018-04-30T05:24:04.478Z,28.47
2018-04-30T05:26:31.994Z,25.33
2018-04-30T05:28:59.457Z,28.27
2018-04-30T05:31:26.869Z,21.57
2018-04-30T05:33:54.366Z,28.87
2018-04-30T05:36:22.701Z,27.90
2018-04-30T05:38:50.159Z,30.37
2018-04-30T05:41:17.573Z,29.97
2018-04-30T05:43:45.015Z,23.50
2018-04-30T05:46:12.466Z,29.13
2018-04-30T05:48:39.922Z,24.87
2018-04-30T05:51:08.293Z,26.67
2018-04-30T05:53:35.717Z,26.30
2018-04-30T05:56:03.158Z,29.40
2018-04-30T05:58:30.570Z,24.17
2018-04-30T06:00:58.026Z,25.93
2018-04-30T06:03:26.376Z,24.70
2018-04-30T06:05:53.817Z,22.90
2018-04-30T06:08:21.235Z,27.33
2018-04-30T06:10:49.174Z,31.00
2018-04-30T06:13:16.657Z,30.33
2018-04-30T06:15:44.202Z,27.97
2018-04-30T06:18:11.641Z,22.40
2018-04-30T06:20:39.074Z,27.43
2018-04-30T06:23:06.491Z,25.23
2018-04-30T06:25:34.027Z,24.23
2018-04-30T06:28:02.383Z,28.95
2018-04-30T06:30:29.965Z,25.90
2018-04-30T06:32:57.390Z,24.43
2018-04-30T06:35:24.821Z,23.53
2018-04-30T06:37:52.363Z,29.90
2018-04-30T06:40:20.003Z,29.33
2018-04-30T06:42:47.448Z,22.53
2018-04-30T06:45:14.862Z,22.87
2018-04-30T06:47:46.058Z,26.03
2018-04-30T06:50:13.477Z,22.23
2018-04-30T06:52:40.973Z,29.47
2018-04-30T06:55:08.383Z,26.67
2018-04-30T06:57:35.827Z,23.00
2018-04-30T07:00:03.242Z,27.77
2018-04-30T07:02:30.978Z,23.30
2018-04-30T07:04:58.458Z,26.60
2018-04-30T07:07:25.898Z,24.97
2018-04-30T07:09:54.214Z,23.27
2018-04-30T07:12:22.665Z,25.67
2018-04-30T07:14:50.098Z,26.43
2018-04-30T07:17:17.587Z,18.90
2018-04-30T07:19:45.028Z,20.97
2018-04-30T07:22:12.434Z,25.57
2018-04-30T07:24:39.877Z,25.20
2018-04-30T07:27:07.309Z,18.57
2018-04-30T07:29:34.754Z,23.07
2018-04-30T07:32:02.183Z,21.90
2018-04-30T07:34:29.617Z,23.63
2018-04-30T07:36:57.034Z,23.50
2018-04-30T07:39:24.477Z,21.73
2018-04-30T07:41:51.898Z,27.67
2018-04-30T07:44:19.333Z,25.30
2018-04-30T07:46:46.756Z,33.03
2018-04-30T07:49:14.251Z,23.90
2018-04-30T07:51:41.630Z,23.87
2018-04-30T07:54:09.125Z,23.40
2018-04-30T07:56:36.572Z,29.17
2018-04-30T07:59:04.068Z,27.83
2018-04-30T08:01:31.587Z,23.73
2018-04-30T08:03:59.074Z,25.40
2018-04-30T08:06:26.492Z,23.60
2018-04-30T08:08:53.938Z,22.13
2018-04-30T08:11:21.358Z,21.87
2018-04-30T08:13:48.806Z,26.93
2018-04-30T08:16:16.245Z,22.27
2018-04-30T08:18:43.724Z,19.00
2018-04-30T08:21:11.134Z,33.70
2018-04-30T08:23:38.610Z,27.53
2018-04-30T08:26:06.981Z,24.13
2018-04-30T08:28:35.329Z,19.70
2018-04-30T08:31:02.776Z,29.33
2018-04-30T08:33:30.189Z,31.60
2018-04-30T08:35:57.734Z,17.87
2018-04-30T08:38:25.157Z,24.40
2018-04-30T08:40:52.594Z,21.93
2018-04-30T08:43:20.016Z,25.23
2018-04-30T08:45:47.454Z,22.07
2018-04-30T08:48:14.921Z,20.63
2018-04-30T08:50:42.366Z,22.33
2018-04-30T08:53:09.829Z,21.87
2018-04-30T08:55:37.269Z,25.90
2018-04-30T08:58:04.747Z,21.57
2018-04-30T09:00:32.326Z,23.90
2018-04-30T09:02:59.624Z,20.20
2018-04-30T09:05:28.005Z,23.90
2018-04-30T09:07:55.445Z,25.77
2018-04-30T09:10:22.869Z,24.17
2018-04-30T09:12:50.300Z,28.93
2018-04-30T09:15:17.710Z,22.70
2018-04-30T09:17:45.153Z,26.33
2018-04-30T09:20:12.675Z,30.00
2018-04-30T09:22:40.130Z,22.43
2018-04-30T09:25:07.557Z,23.67
2018-04-30T09:27:35.007Z,26.27
2018-04-30T09:30:02.414Z,24.63
2018-04-30T09:32:29.949Z,26.50
2018-04-30T09:34:57.378Z,28.00
2018-04-30T09:37:24.821Z,23.17
2018-04-30T09:39:52.237Z,24.10
2018-04-30T09:42:19.686Z,22.13
2018-04-30T09:44:47.115Z,27.30
2018-04-30T09:47:14.579Z,21.83
2018-04-30T09:49:41.990Z,25.70
2018-04-30T09:52:09.406Z,29.50
2018-04-30T09:54:36.847Z,32.80
2018-04-30T09:57:04.257Z,30.53
2018-04-30T09:59:31.707Z,32.63
2018-04-30T10:01:59.121Z,24.50
2018-04-30T10:04:26.558Z,36.73
2018-04-30T10:06:53.970Z,28.67
2018-04-30T10:09:21.417Z,26.37
2018-04-30T10:11:48.829Z,26.97
2018-04-30T10:14:16.318Z,28.83
2018-04-30T10:16:43.741Z,35.87
2018-04-30T10:19:12.077Z,28.80
2018-04-30T10:21:39.498Z,33.43
2018-04-30T10:24:07.059Z,37.17
2018-04-30T10:26:34.470Z,38.33
2018-04-30T10:29:01.893Z,38.60
2018-04-30T10:31:29.396Z,36.47
2018-04-30T10:33:56.790Z,31.60
2018-04-30T10:36:24.245Z,29.53
2018-04-30T10:38:51.657Z,31.37
2018-04-30T10:41:19.103Z,31.93
2018-04-30T10:43:46.618Z,34.57
2018-04-30T10:46:14.070Z,32.13
2018-04-30T10:48:41.481Z,32.60
2018-04-30T10:51:08.981Z,37.17
2018-04-30T10:53:36.402Z,39.07
2018-04-30T10:56:03.902Z,45.90
2018-04-30T10:58:31.322Z,33.13
2018-04-30T11:00:59.726Z,28.57
2018-04-30T11:03:27.137Z,35.67
2018-04-30T11:05:54.589Z,40.37
2018-04-30T11:08:22.014Z,33.80
2018-04-30T11:10:49.421Z,33.63
2018-04-30T11:13:16.867Z,32.30
2018-04-30T11:15:44.382Z,38.63
2018-04-30T11:18:11.837Z,35.60
2018-04-30T11:20:39.249Z,33.10
2018-04-30T11:23:06.694Z,30.57
2018-04-30T11:25:34.211Z,31.20
2018-04-30T11:28:01.659Z,30.93
2018-04-30T11:30:29.069Z,28.87
2018-04-30T11:32:56.519Z,31.47
2018-04-30T11:35:24.022Z,30.40
2018-04-30T11:37:51.480Z,42.87
2018-04-30T11:40:19.925Z,40.33
2018-04-30T11:42:47.373Z,31.50
2018-04-30T11:45:14.804Z,29.93
2018-04-30T11:47:42.250Z,31.13
2018-04-30T11:50:09.667Z,37.70
2018-04-30T11:52:37.133Z,31.13
2018-04-30T11:55:04.566Z,37.43
2018-04-30T11:57:31.982Z,36.40
2018-04-30T11:59:59.417Z,28.80
2018-04-30T12:02:26.911Z,33.20
2018-04-30T12:04:54.352Z,28.60
2018-04-30T12:07:21.738Z,34.33
2018-04-30T12:09:49.245Z,35.13
2018-04-30T12:12:16.670Z,27.63
2018-04-30T12:14:44.103Z,33.30
2018-04-30T12:17:11.612Z,39.73
2018-04-30T12:19:39.954Z,35.37
2018-04-30T12:22:07.411Z,37.30
2018-04-30T12:24:34.818Z,39.57
2018-04-30T12:27:02.246Z,36.87
2018-04-30T12:29:29.694Z,34.63
2018-04-30T12:31:57.114Z,42.87
2018-04-30T12:34:24.633Z,30.40
2018-04-30T12:36:52.090Z,41.17
2018-04-30T12:39:19.649Z,48.23
2018-04-30T12:41:47.089Z,41.60
2018-04-30T12:44:14.529Z,42.57
2018-04-30T12:46:41.984Z,40.37
2018-04-30T12:49:09.414Z,49.10
2018-04-30T12:51:37.835Z,47.70
2018-04-30T12:54:05.305Z,48.67
2018-04-30T12:56:32.857Z,55.10
2018-04-30T12:59:00.314Z,45.20
2018-04-30T13:01:27.788Z,49.37
2018-04-30T13:09:37.576Z,50.07
2018-04-30T13:12:05.105Z,50.07
2018-04-30T13:14:32.542Z,52.00
2018-04-30T13:16:59.985Z,43.90
2018-04-30T13:19:27.497Z,45.50
2018-04-30T13:21:54.937Z,44.83
2018-04-30T13:24:22.360Z,42.50
2018-04-30T13:26:51.901Z,35.53
2018-04-30T13:29:19.361Z,37.73
2018-04-30T13:31:46.840Z,40.57
2018-04-30T13:34:15.486Z,34.40
2018-04-30T13:36:44.189Z,31.50
2018-04-30T13:39:12.662Z,38.30
2018-04-30T13:41:40.097Z,28.37
2018-04-30T13:44:07.587Z,28.00
2018-04-30T13:46:35.000Z,30.47
2018-04-30T13:49:02.454Z,28.27
2018-04-30T13:51:29.868Z,24.60
2018-04-30T13:53:57.323Z,22.90
2018-04-30T13:56:24.767Z,20.17
2018-04-30T13:58:52.209Z,21.60
2018-04-30T14:01:19.743Z,18.80
2018-04-30T14:03:47.242Z,18.07
2018-04-30T14:06:14.665Z,19.17
2018-04-30T14:08:43.078Z,18.47
2018-04-30T14:11:10.537Z,22.43
2018-04-30T14:13:38.086Z,19.67
2018-04-30T14:16:05.583Z,18.47
2018-04-30T14:18:33.107Z,18.63
2018-04-30T14:21:00.518Z,18.57
2018-04-30T14:23:27.954Z,17.30
2018-04-30T14:25:55.403Z,15.00
2018-04-30T14:28:22.813Z,16.47
2018-04-30T14:30:50.257Z,17.83
2018-04-30T14:33:17.685Z,20.77
2018-04-30T14:35:45.121Z,14.43
2018-04-30T14:38:12.583Z,12.50
2018-04-30T14:40:40.033Z,17.20
2018-04-30T14:43:07.446Z,17.03
2018-04-30T14:45:34.924Z,14.90
2018-04-30T14:48:04.289Z,15.57
2018-04-30T14:50:31.729Z,15.13
2018-04-30T14:52:59.233Z,16.30
2018-04-30T14:55:26.688Z,15.03
2018-04-30T14:57:54.109Z,15.63
2018-04-30T15:00:21.533Z,14.20
2018-04-30T15:02:52.112Z,18.53
2018-04-30T15:05:19.539Z,13.37
2018-04-30T15:07:47.333Z,17.50
2018-04-30T15:10:15.742Z,15.30
2018-04-30T15:12:44.072Z,10.40
2018-04-30T15:15:11.527Z,11.73
2018-04-30T15:17:39.028Z,11.20
2018-04-30T15:20:06.456Z,10.43
2018-04-30T15:22:33.899Z,8.47
2018-04-30T15:25:01.321Z,9.90
2018-04-30T15:27:28.785Z,13.80
2018-04-30T15:29:56.211Z,10.70
2018-04-30T15:32:23.684Z,17.67
2018-04-30T15:34:51.106Z,12.40
2018-04-30T15:37:18.578Z,9.20
2018-04-30T15:39:50.221Z,9.77
2018-04-30T15:42:17.736Z,10.10
2018-04-30T15:44:45.161Z,7.30
2018-04-30T15:47:13.835Z,8.20
2018-04-30T15:49:41.469Z,7.60
2018-04-30T15:52:11.494Z,7.13
2018-04-30T15:54:39.052Z,6.47
2018-04-30T15:57:08.276Z,7.10
2018-04-30T15:59:37.851Z,4.77
2018-04-30T16:02:09.203Z,6.67
2018-04-30T16:07:23.896Z,4.93
2018-04-30T16:09:51.355Z,4.87
2018-04-30T16:27:23.388Z,5.50
2018-04-30T16:29:57.893Z,5.40
2018-04-30T16:32:25.311Z,4.57
2018-04-30T16:34:53.671Z,5.00
2018-04-30T16:37:21.094Z,5.27
2018-04-30T16:39:49.514Z,6.60
2018-04-30T16:42:31.465Z,6.30
2018-04-30T16:45:00.608Z,19.07
2018-04-30T16:48:01.163Z,6.67
2018-04-30T16:50:36.473Z,5.90
2018-04-30T16:53:24.015Z,6.70
2018-04-30T16:55:55.670Z,6.33
2018-04-30T16:58:23.264Z,7.67
2018-04-30T17:10:09.867Z,11.07
2018-04-30T17:12:37.334Z,11.67
2018-04-30T17:15:05.690Z,11.00
2018-04-30T17:17:33.140Z,15.27
2018-04-30T17:20:00.562Z,10.87
2018-04-30T17:22:28.023Z,10.87
2018-04-30T17:25:01.458Z,11.40
2018-04-30T17:27:28.910Z,10.73
2018-04-30T17:29:57.294Z,11.30
2018-04-30T17:32:25.698Z,11.10
2018-04-30T17:35:02.472Z,11.43
2018-04-30T17:37:32.252Z,10.47
2018-04-30T17:40:00.757Z,11.00
2018-04-30T17:42:28.442Z,11.40
2018-04-30T17:44:56.248Z,12.63
2018-04-30T17:47:23.926Z,12.43
2018-04-30T17:49:53.906Z,12.27
2018-04-30T17:52:23.683Z,12.80
2018-04-30T17:54:56.474Z,13.37
2018-04-30T17:57:26.876Z,13.47
2018-04-30T18:00:08.748Z,20.33
2018-04-30T18:02:42.058Z,68.27
2018-04-30T18:07:47.548Z,25.83
2018-04-30T18:13:15.290Z,25.83
2018-04-30T18:19:02.635Z,22.87
2018-04-30T18:21:32.474Z,20.07
2018-04-30T18:24:14.998Z,22.93
2018-04-30T18:26:48.958Z,16.90
2018-04-30T18:29:35.575Z,27.97
2018-04-30T19:14:26.400Z,3.20
2018-04-30T19:16:53.803Z,2.50
2018-04-30T19:19:22.187Z,2.00
2018-04-30T19:30:55.076Z,3.47
2018-04-30T19:33:23.155Z,3.50
2018-04-30T19:35:52.033Z,7.43
2018-04-30T19:41:33.935Z,3.93
2018-04-30T19:44:04.364Z,4.30
2018-04-30T19:46:32.883Z,8.83
2018-04-30T19:49:00.567Z,6.13
2018-04-30T19:51:38.480Z,3.90
2018-04-30T19:54:13.195Z,4.93
2018-04-30T19:56:40.884Z,6.37
2018-04-30T19:59:08.570Z,3.90
2018-04-30T20:01:37.943Z,4.73
2018-04-30T20:04:05.550Z,3.80
2018-04-30T20:06:33.181Z,2.67
2018-04-30T20:09:00.949Z,2.43
2018-04-30T20:11:28.465Z,5.40
2018-04-30T20:13:55.915Z,2.80
2018-04-30T20:16:24.250Z,10.43
2018-04-30T20:30:45.410Z,3.70
2018-04-30T20:33:26.737Z,3.53
2018-04-30T20:35:54.932Z,4.50
2018-04-30T20:38:23.263Z,5.10
2018-04-30T20:40:50.720Z,5.97
2018-04-30T20:43:18.131Z,5.77
2018-04-30T20:45:45.583Z,6.27
2018-04-30T20:48:13.010Z,6.10
2018-04-30T20:50:44.401Z,6.20
2018-04-30T20:53:12.746Z,5.03
2018-04-30T20:55:40.216Z,4.77
2018-04-30T20:58:07.645Z,6.40
2018-04-30T21:00:35.104Z,5.20
2018-04-30T21:03:02.527Z,4.73
2018-04-30T21:05:29.972Z,7.10
2018-04-30T21:07:57.391Z,6.50
2018-04-30T21:10:24.839Z,6.70
2018-04-30T21:12:52.262Z,5.43
2018-04-30T21:15:20.674Z,4.70
2018-04-30T21:17:51.177Z,3.93
2018-04-30T21:20:18.640Z,7.60
2018-04-30T21:22:46.119Z,4.17
2018-04-30T21:25:14.468Z,4.00
2018-04-30T21:27:41.920Z,5.03
2018-04-30T21:30:09.331Z,4.93
2018-04-30T21:32:36.780Z,4.27
2018-04-30T21:35:04.199Z,3.60
2018-04-30T21:37:31.639Z,3.80
2018-04-30T21:39:59.057Z,5.63
2018-04-30T21:42:26.500Z,4.73
2018-04-30T21:44:53.921Z,3.83
2018-04-30T21:47:21.432Z,6.33
2018-04-30T21:50:05.447Z,4.20
2018-04-30T21:52:32.885Z,4.13
2018-04-30T21:55:00.313Z,4.30
2018-04-30T21:57:34.119Z,7.87
2018-04-30T22:00:02.430Z,5.60
2018-04-30T22:05:39.678Z,4.63
2018-04-30T22:14:26.118Z,3.70
2018-04-30T22:16:57.199Z,3.23
2018-04-30T22:19:24.621Z,3.60
2018-04-30T22:21:52.033Z,2.60
2018-04-30T22:24:19.477Z,3.60
2018-04-30T22:26:46.892Z,4.00
2018-04-30T22:29:14.326Z,2.37
2018-04-30T22:31:41.746Z,2.83
2018-04-30T22:34:09.184Z,2.50
2018-04-30T22:36:36.594Z,2.40
2018-04-30T22:39:04.035Z,5.53
2018-04-30T22:41:31.454Z,3.33
2018-04-30T22:43:58.897Z,7.13
2018-04-30T22:46:26.314Z,4.00
2018-04-30T22:48:53.758Z,2.23
2018-04-30T22:51:21.179Z,4.37
2018-04-30T22:53:52.238Z,2.37
2018-04-30T22:56:19.660Z,2.60
2018-04-30T22:58:47.066Z,4.15
2018-04-30T23:01:14.514Z,3.23
2018-04-30T23:03:41.937Z,4.93
2018-04-30T23:06:09.369Z,2.30
2018-04-30T23:08:37.694Z,3.17
2018-04-30T23:11:05.146Z,3.13
2018-04-30T23:13:33.449Z,2.43
2018-04-30T23:16:00.907Z,2.67
2018-04-30T23:18:28.319Z,2.60
2018-04-30T23:20:55.769Z,3.63
2018-04-30T23:23:23.178Z,3.60
2018-04-30T23:25:50.627Z,7.73
2018-04-30T23:28:18.038Z,5.63
2018-04-30T23:30:45.494Z,9.53
2018-04-30T23:33:12.906Z,2.57
2018-04-30T23:35:41.254Z,2.47
2018-04-30T23:38:13.273Z,3.37
2018-04-30T23:40:40.713Z,4.63
2018-04-30T23:43:08.129Z,4.87
2018-04-30T23:45:35.574Z,2.37
2018-04-30T23:48:02.987Z,5.50
2018-04-30T23:50:30.422Z,5.20
2018-04-30T23:52:57.848Z,2.60
2018-04-30T23:55:25.309Z,2.23
2018-04-30T23:57:52.718Z,2.40
